Indianapolis, Indiana
Traffic Map
Current Weather Conditions
Indianapolis, Indiana
Broken Clouds
Broken Clouds

Feels Like: 2°
Wind Chill: Ceiling: 3400
Heat Index: Visibility: 10mi
Dew Point: -1° Wind: 12mph
Humidity: 62% Direction: 310° (NW)
Pressure: 29.94in Gusts: 0mph
Raw Report DataKIND 262254Z 31010KT 10SM BKN034 BKN120 06/M01 A2994 RMK AO2 SLP142 T00561011
Traffic Incident Summary
Active as of:
Severity:
Category:
InformationThere was an issue retrieving the traffic information for this location. Please try a different location or try again shortly.
Advertisements
Track Severe Weather on mobile